Terminal Aerodrome Forecast
Issued by NWS

Home | Current Version | Previous Version | Graphics & Text | Print | Product List | Glossary On
Versions: 1 2 3 4 5 6 7 8 9 10 11 12 13
000
FTUS43 KBIS 031100
TAFJMS
TAF
KJMS 031120Z 0312/0412 33028G33KT P6SM BKN035
     FM031500 32024G30KT P6SM SCT035 BKN050
     FM040100 31011KT P6SM SCT100=

USA.gov is the U.S. government's official web portal to all federal, state and local government web resources and services.